Terminal Aerodrome Forecast
Issued by NWS

Home | Current Version | Previous Version | Text Only | Print | Product List | Glossary On
Versions: 1 2 3 4 5 6 7 8 9 10 11 12 13 14 15 16 17 18 19 20 21 22 23 24 25 26 27 28 29 30 31 32 33
871
FTUS43 KDLH 211748
TAFBRD
TAF
KBRD 211748Z 2118/2218 18006KT P6SM SKC
     FM220500 22004KT 5SM BR BKN008
     FM221100 20004KT 3SM BR VCSH BKN008
     FM221500 31004KT P6SM SCT012 BKN035=

USA.gov is the U.S. government's official web portal to all federal, state and local government web resources and services.